Time;durP1;ratioP1;P1;durP2;ratioP2;P2;SDS_P1;SDS_P2;PMS_P1;PMS_P2;Temp;Humidity;BMP_temperature;BMP_pressure;BME280_temperature;BME280_humidity;BME280_pressure;Samples;Min_cycle;Max_cycle;Signal;HPM_P1;HPM_P2
2023/04/30 00:01:17;;;;;;;340.42;152.47;;;;;;;15.36;72.61;99275.66;2491542;27;20477;-78
2023/04/30 00:01:28;;;;;;;349.30;162.73;;;;;;;15.32;72.28;99263.63;351513;28;1368;-77
2023/04/30 00:01:40;;;;;;;348.25;161.35;;;;;;;15.34;72.30;99267.00;350167;28;812;-77
2023/04/30 00:01:51;;;;;;;346.27;158.32;;;;;;;15.35;71.97;99273.97;348562;28;2936;-77
2023/04/30 00:02:01;;;;;;;346.35;160.40;;;;;;;15.36;72.44;99274.81;348529;28;2986;-77
2023/04/30 00:02:11;;;;;;;352.07;166.50;;;;;;;15.35;72.10;99276.59;346111;28;837;-77
2023/04/30 00:02:22;;;;;;;354.93;167.63;;;;;;;15.33;71.99;99267.94;346485;28;3130;-77
2023/04/30 00:02:32;;;;;;;354.88;165.32;;;;;;;15.35;72.06;99268.69;348895;28;1360;-77
2023/04/30 00:02:43;;;;;;;352.13;161.43;;;;;;;15.32;71.82;99269.72;349151;28;3562;-76
2023/04/30 00:02:54;;;;;;;352.30;163.83;;;;;;;15.36;72.11;99270.38;347270;28;4688;-77
2023/04/30 00:03:04;;;;;;;356.02;169.40;;;;;;;15.37;72.12;99277.34;346683;28;5281;-78
2023/04/30 00:03:16;;;;;;;359.67;170.93;;;;;;;15.36;72.11;99275.66;351287;28;1401;-78
2023/04/30 00:03:26;;;;;;;362.83;171.82;;;;;;;15.36;71.78;99270.38;349922;28;1295;-78
2023/04/30 00:03:37;;;;;;;358.90;166.45;;;;;;;15.36;72.15;99269.53;348909;28;897;-77
2023/04/30 00:03:47;;;;;;;355.40;165.87;;;;;;;15.37;72.03;99277.34;348154;28;1916;-77
2023/04/30 00:03:58;;;;;;;352.85;165.45;;;;;;;15.34;72.23;99269.63;347683;28;1365;-77
2023/04/30 00:04:08;;;;;;;355.53;169.17;;;;;;;15.38;72.41;99275.56;347621;28;3168;-77
2023/04/30 00:04:18;;;;;;;356.93;169.80;;;;;;;15.36;72.27;99270.38;345886;28;2923;-77
2023/04/30 00:04:29;;;;;;;357.38;167.93;;;;;;;15.37;72.11;99271.22;346222;28;1156;-77
2023/04/30 00:04:39;;;;;;;354.63;166.75;;;;;;;15.37;72.04;99268.59;348129;28;1537;-77
2023/04/30 00:04:50;;;;;;;353.00;167.17;;;;;;;15.37;72.55;99272.06;345989;28;1310;-77
2023/04/30 00:05:00;;;;;;;354.40;170.63;;;;;;;15.36;72.46;99270.38;344397;28;3370;-77
2023/04/30 00:05:11;;;;;;;354.60;169.65;;;;;;;15.36;72.05;99267.75;343272;28;5150;-77
2023/04/30 00:05:21;;;;;;;354.47;168.17;;;;;;;15.36;72.39;99269.53;345926;28;1340;-77
2023/04/30 00:05:32;;;;;;;359.50;170.17;;;;;;;15.35;72.42;99270.47;347757;28;3155;-77
2023/04/30 00:05:42;;;;;;;357.88;170.52;;;;;;;15.35;72.41;99273.97;344624;28;1211;-77
2023/04/30 00:05:53;;;;;;;354.33;166.77;;;;;;;15.34;72.15;99269.63;344457;28;3319;-77
2023/04/30 00:06:03;;;;;;;351.77;161.93;;;;;;;15.34;72.12;99264.34;341611;28;3029;-77
2023/04/30 00:06:14;;;;;;;353.02;162.35;;;;;;;15.35;71.92;99268.69;343473;28;2745;-77
2023/04/30 00:06:25;;;;;;;353.83;166.20;;;;;;;15.36;72.40;99267.75;344351;28;2898;-77
2023/04/30 00:06:35;;;;;;;356.73;170.38;;;;;;;15.35;72.18;99271.31;343293;28;2919;-77
2023/04/30 00:06:46;;;;;;;357.30;171.33;;;;;;;15.30;72.32;99260.22;343765;28;1324;-77
2023/04/30 00:06:56;;;;;;;353.03;167.90;;;;;;;15.35;72.13;99267.84;340467;28;3359;-77
2023/04/30 00:07:07;;;;;;;349.43;164.40;;;;;;;15.36;72.17;99266.91;338482;28;2930;-77
2023/04/30 00:07:17;;;;;;;350.13;164.75;;;;;;;15.33;72.19;99270.56;342470;28;1320;-77
2023/04/30 00:07:28;;;;;;;354.53;167.87;;;;;;;15.36;72.01;99265.09;342397;28;3275;-77
2023/04/30 00:07:41;;;;;;;356.58;169.57;;;;;;;15.35;72.43;99267.84;340782;28;3205;-77
2023/04/30 00:07:51;;;;;;;354.77;169.63;;;;;;;15.34;72.58;99271.41;343336;28;5250;-77
2023/04/30 00:08:03;;;;;;;351.60;168.63;;;;;;;15.36;72.35;99270.38;346845;28;2810;-77
2023/04/30 00:08:13;;;;;;;350.67;167.07;;;;;;;15.39;72.37;99270.19;343955;28;4559;-77
2023/04/30 00:08:23;;;;;;;352.67;170.33;;;;;;;15.37;72.29;99264.16;344899;28;875;-77
2023/04/30 00:08:35;;;;;;;351.13;168.93;;;;;;;15.39;72.35;99271.97;344302;28;3002;-78
2023/04/30 00:08:45;;;;;;;351.67;169.02;;;;;;;15.38;72.42;99268.50;341671;28;3390;-77
2023/04/30 00:08:56;;;;;;;352.02;165.50;;;;;;;15.35;72.20;99263.41;343748;28;1681;-77
2023/04/30 00:09:06;;;;;;;354.67;165.83;;;;;;;15.38;72.26;99265.84;342954;28;5386;-77
2023/04/30 00:09:17;;;;;;;356.02;164.95;;;;;;;15.39;72.55;99269.34;342101;28;1280;-77
2023/04/30 00:09:27;;;;;;;356.70;166.87;;;;;;;15.38;72.38;99276.41;339969;28;1474;-77
2023/04/30 00:09:38;;;;;;;359.27;169.70;;;;;;;15.38;72.64;99271.13;338573;29;3369;-77
2023/04/30 00:09:49;;;;;;;359.20;171.93;;;;;;;15.37;72.49;99269.44;336878;29;2833;-77
2023/04/30 00:10:00;;;;;;;356.20;170.15;;;;;;;15.37;71.97;99266.78;337816;29;3038;-77
2023/04/30 00:10:10;;;;;;;356.88;171.15;;;;;;;15.39;72.19;99275.44;339056;29;1337;-77
2023/04/30 00:10:21;;;;;;;357.23;172.60;;;;;;;15.36;72.47;99265.09;339450;29;1194;-77
2023/04/30 00:10:31;;;;;;;356.67;172.70;;;;;;;15.37;72.02;99266.78;336827;29;1350;-77
2023/04/30 00:10:42;;;;;;;355.20;169.67;;;;;;;15.36;71.90;99264.25;334872;29;2725;-77
2023/04/30 00:10:52;;;;;;;358.55;170.73;;;;;;;15.38;72.18;99273.75;334207;29;4778;-77
2023/04/30 00:11:03;;;;;;;359.10;169.23;;;;;;;15.38;72.80;99270.28;331678;29;1819;-77
2023/04/30 00:11:13;;;;;;;359.33;171.37;;;;;;;15.37;72.17;99266.78;333621;29;3518;-77
2023/04/30 00:11:24;;;;;;;358.27;169.95;;;;;;;15.33;72.05;99260.03;333711;29;5043;-77
2023/04/30 00:11:34;;;;;;;360.65;172.38;;;;;;;15.35;72.46;99263.41;333030;29;906;-77
2023/04/30 00:11:45;;;;;;;362.93;170.57;;;;;;;15.36;72.14;99258.97;336520;29;1665;-77
2023/04/30 00:11:55;;;;;;;365.58;178.55;;;;;;;15.37;72.05;99272.06;325915;29;2021;-77
2023/04/30 00:12:06;;;;;;;362.73;179.73;;;;;;;15.37;72.30;99258.88;322704;30;1656;-77
2023/04/30 00:12:16;;;;;;;364.27;183.80;;;;;;;15.36;72.22;99267.75;333039;29;2170;-77
2023/04/30 00:12:27;;;;;;;355.43;172.67;;;;;;;15.35;72.24;99263.41;332957;29;1672;-77
2023/04/30 00:12:37;;;;;;;354.45;169.85;;;;;;;15.33;72.39;99265.31;332653;29;1374;-77
2023/04/30 00:12:47;;;;;;;357.13;172.23;;;;;;;15.37;72.17;99266.78;333794;29;1264;-77
2023/04/30 00:12:58;;;;;;;359.83;175.20;;;;;;;15.38;72.38;99273.75;330342;29;1556;-77
2023/04/30 00:13:09;;;;;;;356.70;173.00;;;;;;;15.34;72.47;99268.78;328943;29;2015;-77
2023/04/30 00:13:19;;;;;;;357.75;171.18;;;;;;;15.34;72.32;99267.00;326466;30;1369;-77
2023/04/30 00:13:29;;;;;;;360.23;171.60;;;;;;;15.34;72.48;99266.16;329060;29;2209;-77
2023/04/30 00:13:41;;;;;;;362.45;171.25;;;;;;;15.34;72.46;99266.16;330680;29;2140;-77
2023/04/30 00:13:52;;;;;;;362.80;169.30;;;;;;;15.31;72.49;99262.75;332195;29;2400;-77
2023/04/30 00:14:02;;;;;;;364.27;170.80;;;;;;;15.34;72.17;99267.00;329240;30;835;-77
2023/04/30 00:14:13;;;;;;;359.30;170.32;;;;;;;15.31;72.13;99265.41;327925;30;2732;-77
2023/04/30 00:14:23;;;;;;;360.67;173.30;;;;;;;15.34;72.15;99269.63;324964;30;2638;-77
2023/04/30 00:14:34;;;;;;;363.92;174.30;;;;;;;15.28;72.35;99254.22;321492;30;1491;-77
2023/04/30 00:14:44;;;;;;;360.57;169.53;;;;;;;15.32;72.33;99263.63;320577;30;1849;-77
2023/04/30 00:14:55;;;;;;;357.33;167.25;;;;;;;15.35;72.57;99268.69;319113;30;1503;-77
2023/04/30 00:15:06;;;;;;;355.53;164.10;;;;;;;15.34;72.36;99267.00;320867;30;875;-77
2023/04/30 00:15:16;;;;;;;362.20;170.13;;;;;;;15.36;72.33;99266.91;315958;30;2224;-77
2023/04/30 00:15:27;;;;;;;358.40;168.73;;;;;;;15.35;72.29;99263.41;314025;31;2545;-77
2023/04/30 00:15:37;;;;;;;356.67;170.37;;;;;;;15.34;72.52;99264.34;313398;31;3008;-77
2023/04/30 00:15:47;;;;;;;355.20;170.13;;;;;;;15.34;72.56;99264.34;312871;31;851;-77
2023/04/30 00:15:58;;;;;;;358.13;171.97;;;;;;;15.31;72.55;99257.50;314210;31;3231;-77
2023/04/30 00:16:08;;;;;;;359.30;171.65;;;;;;;15.35;72.85;99262.56;312968;31;2952;-77
2023/04/30 00:16:20;;;;;;;364.47;175.03;;;;;;;15.34;72.61;99261.72;309405;31;1247;-77
2023/04/30 00:16:31;;;;;;;361.45;175.18;;;;;;;15.28;72.60;99249.78;314013;31;3652;-78
2023/04/30 00:16:42;;;;;;;357.88;171.43;;;;;;;15.34;72.50;99259.09;309595;31;3419;-78
2023/04/30 00:16:52;;;;;;;352.25;165.90;;;;;;;15.36;72.80;99265.09;310456;31;2963;-77
2023/04/30 00:17:02;;;;;;;352.70;165.40;;;;;;;15.36;72.30;99261.63;311563;31;911;-76
2023/04/30 00:17:13;;;;;;;352.77;167.00;;;;;;;15.35;72.62;99260.78;314962;31;2197;-77
2023/04/30 00:17:23;;;;;;;358.65;169.65;;;;;;;15.36;72.63;99264.25;315159;31;2947;-77
2023/04/30 00:17:34;;;;;;;360.37;170.13;;;;;;;15.34;72.78;99261.72;317423;31;1210;-77
2023/04/30 00:17:44;;;;;;;361.70;169.00;;;;;;;15.33;73.04;99260.03;312324;31;3466;-77
2023/04/30 00:17:55;;;;;;;359.57;167.43;;;;;;;15.34;72.87;99255.59;311792;31;3950;-76
2023/04/30 00:18:05;;;;;;;360.42;169.10;;;;;;;15.34;73.12;99263.50;312531;31;1321;-77
2023/04/30 00:18:16;;;;;;;358.88;171.65;;;;;;;15.37;73.03;99265.94;309597;31;4524;-77
2023/04/30 00:18:26;;;;;;;360.33;173.30;;;;;;;15.34;73.01;99256.44;303177;32;4020;-77
2023/04/30 00:18:37;;;;;;;357.33;169.83;;;;;;;15.36;72.91;99265.09;298496;32;5079;-77
2023/04/30 00:18:47;;;;;;;359.15;169.07;;;;;;;15.35;73.56;99268.69;302141;32;1076;-77
2023/04/30 00:18:58;;;;;;;355.95;165.95;;;;;;;15.35;73.52;99267.84;303152;32;4386;-77
2023/04/30 00:19:08;;;;;;;361.70;169.27;;;;;;;15.32;73.77;99258.34;301133;32;3416;-77
2023/04/30 00:19:19;;;;;;;361.75;169.93;;;;;;;15.31;73.67;99262.75;301166;32;945;-77
2023/04/30 00:19:29;;;;;;;362.57;170.40;;;;;;;15.31;73.55;99261.91;299475;32;3378;-77
2023/04/30 00:19:39;;;;;;;359.77;169.23;;;;;;;15.30;73.92;99260.22;299051;32;4606;-77
2023/04/30 00:19:50;;;;;;;362.85;171.82;;;;;;;15.30;73.82;99268.13;296992;33;1542;-77
2023/04/30 00:20:00;;;;;;;361.17;173.02;;;;;;;15.30;74.21;99263.72;296060;33;5404;-77
2023/04/30 00:20:11;;;;;;;359.07;173.33;;;;;;;15.30;73.79;99265.50;293560;33;6676;-77
2023/04/30 00:20:22;;;;;;;355.80;171.43;;;;;;;15.28;73.76;99262.13;292664;33;6164;-77
2023/04/30 00:20:34;;;;;;;357.37;172.53;;;;;;;15.27;73.71;99265.72;289086;34;1226;-77
2023/04/30 00:20:44;;;;;;;357.92;171.05;;;;;;;15.29;73.58;99263.81;288107;33;5851;-77
2023/04/30 00:20:54;;;;;;;358.42;169.13;;;;;;;15.25;73.67;99263.16;289245;33;6020;-78
2023/04/30 00:21:05;;;;;;;361.23;172.73;;;;;;;15.29;73.40;99269.09;291075;34;1237;-78
2023/04/30 00:21:15;;;;;;;361.85;176.75;;;;;;;15.27;73.67;99256.00;289847;33;6680;-79
2023/04/30 00:21:26;;;;;;;359.37;176.93;;;;;;;15.27;74.11;99261.28;286622;34;5039;-77
2023/04/30 00:21:37;;;;;;;356.52;172.93;;;;;;;15.26;73.66;99259.59;282557;34;5645;-77
2023/04/30 00:21:47;;;;;;;358.92;172.05;;;;;;;15.27;73.90;99261.28;282521;35;1255;-77
2023/04/30 00:22:00;;;;;;;362.20;174.33;;;;;;;15.27;74.07;99260.44;281031;34;6383;-77
2023/04/30 00:22:10;;;;;;;365.45;177.70;;;;;;;15.28;73.60;99262.13;279328;35;8265;-77
2023/04/30 00:22:21;;;;;;;364.50;178.57;;;;;;;15.27;73.71;99257.78;280060;35;894;-77
2023/04/30 00:22:32;;;;;;;361.10;172.93;;;;;;;15.29;73.66;99261.19;276575;35;8607;-77
2023/04/30 00:22:42;;;;;;;361.02;173.52;;;;;;;15.29;73.77;99263.81;274713;35;8862;-77
2023/04/30 00:24:35;;;;;;;343.18;156.34;;;;;;;15.25;72.43;99262.31;2500651;27;20603;-77
2023/04/30 00:24:45;;;;;;;348.73;165.77;;;;;;;15.25;72.64;99262.31;352202;28;1568;-77
2023/04/30 00:24:55;;;;;;;351.20;166.68;;;;;;;15.25;72.80;99263.16;350126;28;895;-77
2023/04/30 00:25:06;;;;;;;353.20;167.87;;;;;;;15.24;72.87;99261.47;348878;28;864;-77
2023/04/30 00:25:16;;;;;;;354.10;168.63;;;;;;;15.27;72.81;99270.97;347363;28;1228;-77
2023/04/30 00:25:27;;;;;;;354.77;170.37;;;;;;;15.25;72.87;99268.44;347482;28;782;-79
2023/04/30 00:25:37;;;;;;;352.30;168.37;;;;;;;15.24;72.66;99266.75;348781;28;1267;-79
2023/04/30 00:25:48;;;;;;;352.73;167.20;;;;;;;15.25;72.88;99267.59;348695;28;1293;-77
2023/04/30 00:25:58;;;;;;;352.83;169.00;;;;;;;15.23;72.78;99257.16;349963;28;950;-78
2023/04/30 00:26:08;;;;;;;355.92;167.73;;;;;;;15.25;73.15;99263.16;346050;28;1250;-78
2023/04/30 00:26:19;;;;;;;361.23;171.73;;;;;;;15.23;72.87;99264.22;347505;28;1196;-78
2023/04/30 00:26:29;;;;;;;361.80;168.07;;;;;;;15.25;72.77;99263.16;346798;28;1240;-77
2023/04/30 00:26:41;;;;;;;358.83;171.73;;;;;;;15.25;72.83;99272.88;347406;28;852;-77
2023/04/30 00:26:51;;;;;;;351.95;167.57;;;;;;;15.22;73.17;99263.38;348540;28;1302;-77
2023/04/30 00:27:02;;;;;;;353.87;171.93;;;;;;;15.24;72.75;99273.81;345657;28;1193;-77
2023/04/30 00:27:12;;;;;;;355.98;171.73;;;;;;;15.24;72.56;99264.13;347869;28;1215;-77
2023/04/30 00:27:23;;;;;;;362.67;177.13;;;;;;;15.23;72.46;99258.94;348961;28;910;-77
2023/04/30 00:27:33;;;;;;;360.67;173.05;;;;;;;15.23;72.88;99266.84;347353;28;1518;-77
2023/04/30 00:27:43;;;;;;;357.17;169.40;;;;;;;15.25;72.89;99270.22;347484;28;802;-77
2023/04/30 00:27:54;;;;;;;351.55;164.10;;;;;;;15.22;72.81;99265.16;347470;28;993;-77
2023/04/30 00:28:05;;;;;;;352.33;168.33;;;;;;;15.25;72.86;99267.59;348598;28;859;-77
2023/04/30 00:28:15;;;;;;;351.63;168.13;;;;;;;15.24;72.93;99263.25;347356;28;1037;-77
2023/04/30 00:28:25;;;;;;;355.33;168.80;;;;;;;15.23;72.76;99265.06;345975;28;1218;-77
2023/04/30 00:28:36;;;;;;;351.30;163.82;;;;;;;15.23;72.77;99269.47;344698;28;1311;-77
2023/04/30 00:28:46;;;;;;;352.10;164.10;;;;;;;15.28;72.87;99277.94;345948;28;958;-77
2023/04/30 00:28:57;;;;;;;348.98;164.73;;;;;;;15.28;72.70;99272.66;346323;28;1173;-77
2023/04/30 00:29:07;;;;;;;351.77;166.90;;;;;;;15.28;72.98;99277.94;347262;28;838;-78
2023/04/30 00:29:17;;;;;;;353.37;168.30;;;;;;;15.28;73.18;99267.41;347255;28;836;-78
2023/04/30 00:29:28;;;;;;;358.97;170.03;;;;;;;15.25;72.84;99267.59;346020;28;1396;-78
2023/04/30 00:29:38;;;;;;;359.10;168.67;;;;;;;15.26;72.73;99267.50;347429;28;1319;-78
2023/04/30 00:29:49;;;;;;;357.65;167.95;;;;;;;15.26;72.78;99267.50;346215;28;825;-78
2023/04/30 00:29:59;;;;;;;352.52;166.32;;;;;;;15.25;73.01;99270.22;342601;28;995;-78
2023/04/30 00:30:10;;;;;;;352.90;167.43;;;;;;;15.24;72.81;99266.75;343315;28;1198;-77
2023/04/30 00:30:21;;;;;;;350.80;168.88;;;;;;;15.25;73.18;99273.72;344710;28;1212;-78
2023/04/30 00:30:31;;;;;;;357.83;171.17;;;;;;;15.25;73.15;99273.72;345538;28;1192;-78
2023/04/30 00:30:42;;;;;;;357.90;172.65;;;;;;;15.25;72.96;99271.06;344320;28;1377;-78
2023/04/30 00:30:52;;;;;;;356.00;171.63;;;;;;;15.25;72.55;99267.59;343438;28;1312;-78
2023/04/30 00:31:05;;;;;;;350.25;169.65;;;;;;;15.28;72.58;99278.78;344242;28;1305;-78
2023/04/30 00:31:16;;;;;;;349.73;168.93;;;;;;;15.27;72.58;99277.09;343500;28;1561;-78
2023/04/30 00:31:26;;;;;;;351.83;167.77;;;;;;;15.28;72.97;99273.50;340973;28;1194;-78
2023/04/30 00:31:36;;;;;;;355.80;169.93;;;;;;;15.27;72.98;99270.97;344700;28;1221;-78
2023/04/30 00:31:47;;;;;;;355.17;168.03;;;;;;;15.29;72.72;99274.38;342110;28;1581;-78
2023/04/30 00:31:58;;;;;;;356.33;169.23;;;;;;;15.28;72.30;99270.88;341983;28;1238;-78
2023/04/30 00:32:08;;;;;;;351.23;165.30;;;;;;;15.25;72.68;99267.59;340776;29;1304;-78
2023/04/30 00:32:18;;;;;;;352.90;166.83;;;;;;;15.31;72.57;99283.03;340306;28;911;-78
2023/04/30 00:32:29;;;;;;;352.47;165.07;;;;;;;15.29;73.02;99269.09;341210;28;1135;-78
2023/04/30 00:32:39;;;;;;;358.45;169.25;;;;;;;15.30;72.99;99268.13;340401;28;1033;-77
2023/04/30 00:32:49;;;;;;;358.20;167.53;;;;;;;15.30;72.60;99271.63;340679;29;1189;-77
2023/04/30 00:33:00;;;;;;;356.73;165.30;;;;;;;15.35;72.78;99278.38;344304;28;1623;-78
2023/04/30 00:33:10;;;;;;;350.97;161.63;;;;;;;15.34;72.96;99280.19;336830;29;1669;-78
2023/04/30 00:33:21;;;;;;;352.47;163.47;;;;;;;15.29;72.66;99272.56;332696;29;1212;-77
2023/04/30 00:33:31;;;;;;;353.07;166.53;;;;;;;15.33;72.62;99275.84;337256;29;1978;-78
2023/04/30 00:33:41;;;;;;;357.97;169.53;;;;;;;15.34;72.16;99276.69;336768;29;1638;-78
2023/04/30 00:33:52;;;;;;;355.65;167.80;;;;;;;15.31;72.42;99275.09;338148;29;1459;-78
2023/04/30 00:34:02;;;;;;;357.50;168.07;;;;;;;15.34;72.68;99282.81;339523;29;1214;-78
2023/04/30 00:34:13;;;;;;;351.95;163.95;;;;;;;15.30;72.69;99270.78;335342;29;1332;-78
2023/04/30 00:34:23;;;;;;;352.47;163.53;;;;;;;15.32;72.73;99274.16;331640;29;1284;-77
2023/04/30 00:34:33;;;;;;;352.98;162.13;;;;;;;15.31;72.67;99270.69;336463;29;1414;-78
2023/04/30 00:34:44;;;;;;;354.60;164.37;;;;;;;15.31;72.48;99272.47;335042;29;1813;-77
2023/04/30 00:34:55;;;;;;;352.60;166.80;;;;;;;15.31;72.47;99272.47;332922;29;1531;-78
2023/04/30 00:35:05;;;;;;;353.47;165.37;;;;;;;15.32;72.80;99274.16;334237;29;1302;-78
2023/04/30 00:35:16;;;;;;;349.77;162.27;;;;;;;15.30;72.75;99273.41;331954;29;2110;-78
2023/04/30 00:35:26;;;;;;;352.83;160.75;;;;;;;15.31;72.54;99277.75;332802;29;2778;-77
2023/04/30 00:35:37;;;;;;;351.83;163.70;;;;;;;15.31;72.80;99277.75;332998;29;1186;-78
2023/04/30 00:35:47;;;;;;;358.90;165.57;;;;;;;15.29;72.77;99274.38;332446;29;1694;-78
2023/04/30 00:35:57;;;;;;;357.30;166.63;;;;;;;15.30;73.13;99274.25;334011;29;1351;-78
2023/04/30 00:36:08;;;;;;;355.20;163.17;;;;;;;15.28;72.99;99275.31;331783;29;1289;-78
2023/04/30 00:36:18;;;;;;;351.85;161.38;;;;;;;15.32;72.83;99275.00;331516;29;1397;-77
2023/04/30 00:36:30;;;;;;;352.00;161.20;;;;;;;15.31;72.54;99272.47;333625;29;1503;-77
2023/04/30 00:36:40;;;;;;;354.65;162.02;;;;;;;15.33;72.55;99275.84;329903;29;2071;-78
2023/04/30 00:36:50;;;;;;;357.95;166.40;;;;;;;15.32;72.62;99274.16;326740;30;1381;-78
2023/04/30 00:37:01;;;;;;;357.70;166.27;;;;;;;15.30;72.24;99266.34;328274;30;2451;-78
2023/04/30 00:37:11;;;;;;;355.83;167.90;;;;;;;15.32;72.13;99274.16;326154;29;2027;-78
2023/04/30 00:37:22;;;;;;;350.93;163.40;;;;;;;15.30;72.48;99276.06;326832;30;1345;-78
2023/04/30 00:37:32;;;;;;;353.35;165.23;;;;;;;15.31;72.31;99269.84;323019;30;2569;-77
2023/04/30 00:37:42;;;;;;;352.50;164.60;;;;;;;15.28;72.50;99272.66;324605;30;2764;-78
2023/04/30 00:37:53;;;;;;;355.42;165.45;;;;;;;15.24;72.36;99271.19;324330;30;1315;-78
2023/04/30 00:38:03;;;;;;;355.17;165.73;;;;;;;15.17;72.10;99257.53;321871;30;1847;-78
2023/04/30 00:38:13;;;;;;;356.23;167.73;;;;;;;15.21;72.07;99269.59;323453;30;1576;-77
2023/04/30 00:38:24;;;;;;;353.92;165.75;;;;;;;15.21;72.44;99272.22;322830;30;2033;-77
2023/04/30 00:38:35;;;;;;;351.73;164.40;;;;;;;15.20;72.50;99264.41;323010;30;1247;-77
2023/04/30 00:38:45;;;;;;;353.20;165.27;;;;;;;15.23;72.34;99274.75;318371;30;2381;-78
2023/04/30 00:38:56;;;;;;;356.83;167.90;;;;;;;15.20;72.04;99269.69;317625;30;2818;-78
2023/04/30 00:39:06;;;;;;;357.87;169.00;;;;;;;15.22;72.30;99267.78;315261;31;739;-77
2023/04/30 00:39:17;;;;;;;358.03;169.07;;;;;;;15.22;72.13;99273.91;316578;30;3113;-77
2023/04/30 00:39:27;;;;;;;351.30;165.00;;;;;;;15.22;72.18;99273.91;311610;31;3005;-78
2023/04/30 00:39:37;;;;;;;351.00;163.52;;;;;;;15.20;72.19;99270.53;308197;32;1252;-78
2023/04/30 00:39:48;;;;;;;351.47;163.63;;;;;;;15.23;72.12;99272.97;312828;31;3287;-77
2023/04/30 00:39:58;;;;;;;358.50;165.30;;;;;;;15.21;72.29;99271.38;310724;31;3490;-77
2023/04/30 00:40:09;;;;;;;360.13;166.07;;;;;;;15.23;72.49;99274.75;311847;31;850;-78
2023/04/30 00:40:19;;;;;;;359.33;166.70;;;;;;;15.23;72.51;99269.47;307328;32;1250;-78
2023/04/30 00:40:30;;;;;;;352.47;168.60;;;;;;;15.24;72.34;99276.44;306690;31;2250;-78
2023/04/30 00:40:42;;;;;;;349.20;166.05;;;;;;;15.25;72.50;99272.88;304171;32;2783;-77
2023/04/30 00:40:52;;;;;;;349.40;164.93;;;;;;;15.25;72.45;99278.13;302141;32;1380;-78
2023/04/30 00:41:03;;;;;;;354.65;164.85;;;;;;;15.23;72.43;99274.75;306386;32;3041;-78
2023/04/30 00:41:13;;;;;;;358.55;168.70;;;;;;;15.24;72.58;99274.66;303499;32;3870;-78
2023/04/30 00:41:24;;;;;;;361.37;171.53;;;;;;;15.22;72.39;99268.63;301614;32;4223;-78
2023/04/30 00:41:34;;;;;;;360.65;173.20;;;;;;;15.24;72.71;99273.81;296933;33;1226;-78
2023/04/30 00:41:46;;;;;;;359.50;171.80;;;;;;;15.24;72.57;99271.19;300161;32;4204;-77
2023/04/30 00:41:56;;;;;;;357.83;170.93;;;;;;;15.26;72.56;99272.78;301610;32;4056;-78
2023/04/30 00:42:07;;;;;;;355.57;168.70;;;;;;;15.25;72.74;99271.06;302034;32;1211;-78
2023/04/30 00:42:17;;;;;;;350.65;164.50;;;;;;;15.25;72.86;99272.88;299364;32;4653;-78
2023/04/30 00:42:28;;;;;;;346.43;160.67;;;;;;;15.26;72.60;99269.28;295589;33;3553;-78
2023/04/30 00:42:38;;;;;;;343.98;160.00;;;;;;;15.26;72.74;99270.13;295962;33;816;-78
2023/04/30 00:42:51;;;;;;;345.03;161.47;;;;;;;15.28;72.86;99277.94;294731;33;3500;-78
2023/04/30 00:43:01;;;;;;;352.67;164.18;;;;;;;15.28;72.75;99270.03;294193;33;4971;-78
2023/04/30 00:43:11;;;;;;;359.77;169.23;;;;;;;15.30;72.47;99276.06;292104;33;5243;-77
2023/04/30 00:43:22;;;;;;;360.38;171.80;;;;;;;15.27;72.24;99276.25;292022;33;1927;-77
2023/04/30 00:43:33;;;;;;;361.43;175.33;;;;;;;15.28;72.54;99272.66;287082;33;5701;-77
2023/04/30 00:43:45;;;;;;;354.08;169.23;;;;;;;15.28;72.25;99270.03;285827;34;6698;-77
2023/04/30 00:43:56;;;;;;;350.38;164.60;;;;;;;15.22;72.16;99270.44;288038;34;6417;-77
2023/04/30 00:44:06;;;;;;;351.53;164.13;;;;;;;15.27;72.10;99277.09;286443;34;782;-77
2023/04/30 00:44:16;;;;;;;355.65;167.18;;;;;;;15.29;72.40;99279.63;282787;34;5661;-78
2023/04/30 00:44:27;;;;;;;363.20;170.47;;;;;;;15.29;72.02;99277.84;281958;34;6809;-77
2023/04/30 00:44:37;;;;;;;362.47;169.40;;;;;;;15.27;72.19;99281.53;282669;35;1243;-77
2023/04/30 00:44:48;;;;;;;358.00;167.30;;;;;;;15.28;72.00;99272.66;280540;34;5377;-77
2023/04/30 00:44:58;;;;;;;354.07;166.43;;;;;;;15.29;72.10;99274.38;278500;35;5944;-77
2023/04/30 00:45:09;;;;;;;356.00;169.82;;;;;;;15.30;72.39;99276.06;275402;35;1306;-78
2023/04/30 00:45:20;;;;;;;356.60;170.87;;;;;;;15.28;72.18;99275.31;274735;36;1235;-78
2023/04/30 00:45:31;;;;;;;361.50;175.35;;;;;;;15.28;72.30;99272.66;272231;35;13488;-77
2023/04/30 00:47:17;;;;;;;341.24;153.69;;;;;;;15.24;72.34;99271.19;2497459;27;20278;-78
2023/04/30 00:47:27;;;;;;;345.97;158.70;;;;;;;15.23;72.77;99269.47;352366;28;806;-77
2023/04/30 00:47:38;;;;;;;350.77;161.27;;;;;;;15.21;72.61;99268.75;348808;28;1290;-77
2023/04/30 00:47:48;;;;;;;351.53;161.53;;;;;;;15.20;72.54;99267.06;347372;28;1695;-79
2023/04/30 00:47:59;;;;;;;356.80;165.05;;;;;;;15.22;72.64;99267.78;347306;28;1345;-77
2023/04/30 00:48:09;;;;;;;358.73;168.30;;;;;;;15.22;72.75;99267.78;348958;28;839;-77
2023/04/30 00:48:20;;;;;;;359.75;171.68;;;;;;;15.21;73.27;99266.09;348989;28;800;-77
2023/04/30 00:48:30;;;;;;;354.88;166.52;;;;;;;15.21;72.85;99274.84;347440;28;1319;-77
2023/04/30 00:48:41;;;;;;;353.10;164.27;;;;;;;15.22;72.92;99267.78;349561;28;938;-79
2023/04/30 00:48:51;;;;;;;351.97;164.03;;;;;;;15.20;72.65;99267.06;345948;28;1528;-79
2023/04/30 00:49:03;;;;;;;354.45;167.18;;;;;;;15.21;72.85;99266.09;347375;28;1298;-78
2023/04/30 00:49:14;;;;;;;355.75;167.88;;;;;;;15.22;72.82;99273.06;348901;28;903;-78
2023/04/30 00:49:24;;;;;;;355.87;166.33;;;;;;;15.16;73.06;99260.31;347903;28;1364;-78
2023/04/30 00:49:35;;;;;;;351.42;162.32;;;;;;;15.21;73.36;99266.09;347425;28;1258;-78
2023/04/30 00:49:45;;;;;;;348.23;161.53;;;;;;;15.18;73.10;99267.16;347333;28;860;-77
2023/04/30 00:49:55;;;;;;;347.98;162.52;;;;;;;15.21;73.18;99272.22;344845;28;837;-77
2023/04/30 00:50:06;;;;;;;351.93;163.90;;;;;;;15.21;73.35;99274.00;346095;28;859;-77
2023/04/30 00:50:17;;;;;;;351.08;161.90;;;;;;;15.20;73.77;99269.69;348628;28;812;-77
2023/04/30 00:50:27;;;;;;;352.52;163.27;;;;;;;15.20;73.25;99267.91;346274;28;833;-77
2023/04/30 00:50:38;;;;;;;347.80;160.87;;;;;;;15.16;73.50;99263.75;346653;28;914;-78
2023/04/30 00:50:48;;;;;;;351.05;162.82;;;;;;;15.18;73.66;99272.41;348630;28;1068;-77
2023/04/30 00:50:59;;;;;;;349.33;158.37;;;;;;;15.19;73.57;99273.25;348485;28;1085;-78
2023/04/30 00:51:10;;;;;;;355.25;161.10;;;;;;;15.17;73.87;99269.88;348647;28;1265;-77
2023/04/30 00:51:20;;;;;;;351.70;158.82;;;;;;;15.18;73.59;99266.31;347413;28;1341;-77
2023/04/30 00:51:31;;;;;;;353.17;162.47;;;;;;;15.16;73.47;99266.41;347419;28;1163;-77
2023/04/30 00:51:41;;;;;;;348.42;162.73;;;;;;;15.20;73.59;99272.31;347381;28;1241;-78
2023/04/30 00:51:52;;;;;;;348.67;161.82;;;;;;;15.18;73.80;99266.31;347238;28;1809;-77
2023/04/30 00:52:02;;;;;;;350.03;162.43;;;;;;;15.18;73.56;99266.31;347526;28;1308;-77
2023/04/30 00:52:13;;;;;;;353.00;162.88;;;;;;;15.20;73.60;99272.31;343328;28;1342;-77
2023/04/30 00:52:23;;;;;;;353.97;164.70;;;;;;;15.17;73.75;99267.25;346160;28;1224;-78
2023/04/30 00:52:34;;;;;;;352.48;164.10;;;;;;;15.20;73.48;99265.25;347393;28;1461;-77
2023/04/30 00:52:44;;;;;;;350.10;161.33;;;;;;;15.21;73.64;99263.47;347408;28;845;-77
2023/04/30 00:52:54;;;;;;;351.92;162.32;;;;;;;15.20;73.88;99269.69;344513;28;1245;-77
2023/04/30 00:53:05;;;;;;;354.17;165.10;;;;;;;15.21;73.60;99271.38;346035;28;1215;-77
2023/04/30 00:53:15;;;;;;;356.17;166.57;;;;;;;15.21;73.65;99266.09;347174;28;1204;-77